Time;durP1;ratioP1;P1;durP2;ratioP2;P2;SDS_P1;SDS_P2;PMS_P1;PMS_P2;Temp;Humidity;BMP_temperature;BMP_pressure;BME280_temperature;BME280_humidity;BME280_pressure;Samples;Min_cycle;Max_cycle;Signal;HPM_P1;HPM_P2
2022/12/06 00:01:06;;;;;;;23.37;17.20;;;3.70;99.90;;;;;;5001361;28;21004;-79
2022/12/06 00:03:34;;;;;;;27.73;17.33;;;3.70;99.90;;;;;;5002570;28;20471;-79
2022/12/06 00:06:02;;;;;;;23.20;16.67;;;3.70;99.90;;;;;;5001936;28;20817;-79
2022/12/06 00:08:30;;;;;;;29.67;18.43;;;3.70;99.90;;;;;;5001485;28;20457;-79
2022/12/06 00:11:04;;;;;;;28.03;19.33;;;3.80;99.90;;;;;;5001932;28;20486;-79
2022/12/06 00:13:31;;;;;;;28.17;18.50;;;3.80;99.90;;;;;;5002872;28;20484;-79
2022/12/06 00:16:01;;;;;;;28.57;17.80;;;3.80;99.90;;;;;;5001197;28;20453;-79
2022/12/06 00:18:27;;;;;;;26.97;18.80;;;3.80;99.90;;;;;;4999296;28;20841;-78
2022/12/06 00:20:54;;;;;;;29.60;19.93;;;3.80;99.90;;;;;;4999441;28;20456;-78
2022/12/06 00:23:21;;;;;;;31.10;19.07;;;3.80;99.90;;;;;;4998804;28;20474;-78
2022/12/06 00:25:49;;;;;;;32.10;19.70;;;3.70;99.90;;;;;;4999303;28;20472;-79
2022/12/06 00:28:16;;;;;;;30.30;19.67;;;3.80;99.90;;;;;;4999114;28;20449;-79
2022/12/06 00:30:42;;;;;;;35.93;21.10;;;3.80;99.90;;;;;;4999941;28;20471;-79
2022/12/06 00:33:09;;;;;;;32.03;20.33;;;3.80;99.90;;;;;;4999288;28;20452;-78
2022/12/06 00:35:36;;;;;;;31.70;20.13;;;3.80;99.90;;;;;;5000084;28;20960;-78
2022/12/06 00:38:02;;;;;;;32.73;20.40;;;3.90;99.90;;;;;;5001030;28;20459;-78
2022/12/06 00:40:29;;;;;;;35.80;21.87;;;3.90;99.90;;;;;;5000534;28;20448;-78
2022/12/06 00:42:57;;;;;;;33.10;20.57;;;3.90;99.90;;;;;;4999365;28;20848;-78
2022/12/06 00:45:24;;;;;;;41.50;21.67;;;3.90;99.90;;;;;;4999817;28;20469;-78
2022/12/06 00:47:50;;;;;;;36.70;22.20;;;3.90;99.90;;;;;;4997522;28;20805;-78
2022/12/06 00:50:17;;;;;;;30.80;21.10;;;3.90;99.90;;;;;;4995403;28;20461;-79
2022/12/06 00:52:46;;;;;;;37.67;22.47;;;4.00;99.90;;;;;;4998485;28;20457;-78
2022/12/06 00:55:12;;;;;;;35.63;21.50;;;4.00;99.90;;;;;;4998304;28;20985;-78
2022/12/06 00:57:39;;;;;;;32.33;21.20;;;4.00;99.90;;;;;;4997619;28;20835;-78
2022/12/06 01:00:08;;;;;;;33.20;21.43;;;4.00;99.90;;;;;;5002021;28;20449;-78
2022/12/06 01:02:35;;;;;;;31.43;19.97;;;4.00;99.90;;;;;;5002143;28;20449;-79
2022/12/06 01:05:02;;;;;;;34.97;20.90;;;4.10;99.90;;;;;;5003003;28;21016;-79
2022/12/06 01:07:29;;;;;;;38.67;22.40;;;4.10;99.90;;;;;;5002880;28;20469;-79
2022/12/06 01:09:55;;;;;;;33.70;21.20;;;4.10;99.90;;;;;;5002592;28;20831;-78
2022/12/06 01:12:22;;;;;;;36.43;21.90;;;4.10;99.90;;;;;;5006174;28;20496;-79
2022/12/06 01:14:49;;;;;;;37.37;22.67;;;4.10;99.90;;;;;;5006781;28;20474;-79
2022/12/06 01:17:17;;;;;;;33.53;22.10;;;4.10;99.90;;;;;;5006820;28;20457;-79
2022/12/06 01:19:43;;;;;;;40.97;22.30;;;4.10;99.90;;;;;;5006739;28;20959;-79
2022/12/06 01:22:10;;;;;;;40.57;26.17;;;4.10;99.90;;;;;;5006771;28;20449;-79
2022/12/06 01:24:38;;;;;;;58.17;38.40;;;4.10;99.90;;;;;;5006694;28;21000;-78
2022/12/06 01:27:05;;;;;;;37.20;24.90;;;4.10;99.90;;;;;;5006302;28;20465;-78
2022/12/06 01:29:31;;;;;;;35.33;20.23;;;4.20;99.90;;;;;;5004583;28;20460;-79
2022/12/06 01:31:58;;;;;;;34.50;20.37;;;4.10;99.90;;;;;;5004821;28;20480;-79
2022/12/06 01:34:27;;;;;;;33.10;21.37;;;4.10;99.90;;;;;;5002880;28;20478;-79
2022/12/06 01:36:54;;;;;;;33.93;19.83;;;4.00;99.90;;;;;;4999130;28;20512;-78
2022/12/06 01:39:21;;;;;;;29.43;19.83;;;4.10;99.90;;;;;;4997405;28;20531;-80
2022/12/06 01:41:47;;;;;;;32.03;19.80;;;4.10;99.90;;;;;;4998678;28;20452;-79
2022/12/06 01:44:37;;;;;;;33.70;20.73;;;4.10;99.90;;;;;;4999565;28;20473;-79
2022/12/06 01:47:04;;;;;;;27.37;18.60;;;4.10;99.90;;;;;;5001231;28;20449;-79
2022/12/06 01:49:35;;;;;;;33.07;21.60;;;4.10;99.90;;;;;;5006224;28;20444;-79
2022/12/06 01:52:07;;;;;;;33.60;21.70;;;4.10;99.90;;;;;;5007299;28;20473;-78
2022/12/06 01:54:36;;;;;;;30.17;20.30;;;4.10;99.90;;;;;;5008207;28;20470;-79
2022/12/06 01:57:07;;;;;;;35.47;23.07;;;4.10;99.90;;;;;;5010426;28;20442;-78
2022/12/06 01:59:33;;;;;;;30.17;19.67;;;4.20;99.90;;;;;;5011405;28;20445;-79
2022/12/06 02:02:00;;;;;;;33.93;22.13;;;4.20;99.90;;;;;;5012411;28;20452;-79
2022/12/06 02:04:30;;;;;;;30.93;19.67;;;4.30;99.90;;;;;;5012579;28;20480;-78
2022/12/06 02:07:00;;;;;;;28.30;20.77;;;4.30;99.90;;;;;;5013109;28;20449;-79
2022/12/06 02:09:29;;;;;;;31.00;20.23;;;4.20;99.90;;;;;;5008942;28;20440;-79
2022/12/06 02:11:56;;;;;;;32.60;20.83;;;4.20;99.90;;;;;;5006652;28;20491;-78
2022/12/06 02:14:26;;;;;;;33.83;20.77;;;4.20;99.90;;;;;;5010382;28;20470;-79
2022/12/06 02:17:05;;;;;;;29.03;20.20;;;4.20;99.90;;;;;;5011426;28;20448;-79
2022/12/06 02:20:02;;;;;;;30.20;19.27;;;4.20;99.90;;;;;;5011901;28;20436;-79
2022/12/06 02:22:46;;;;;;;30.47;21.10;;;4.30;99.90;;;;;;5010238;28;20426;-79
2022/12/06 02:25:41;;;;;;;32.70;20.33;;;4.30;99.90;;;;;;5010222;28;20480;-79
2022/12/06 02:28:29;;;;;;;28.80;18.27;;;4.30;99.90;;;;;;5008796;28;20434;-79
2022/12/06 02:31:00;;;;;;;26.10;19.57;;;4.30;99.90;;;;;;5006737;28;20479;-79
2022/12/06 02:33:34;;;;;;;28.73;18.63;;;4.30;99.90;;;;;;5005949;28;20474;-78
2022/12/06 02:36:06;;;;;;;29.60;18.37;;;4.30;99.90;;;;;;5007272;28;20457;-78
2022/12/06 02:38:35;;;;;;;34.60;19.80;;;4.30;99.90;;;;;;5008246;28;20433;-78
2022/12/06 02:41:08;;;;;;;27.67;18.90;;;4.30;99.90;;;;;;5007583;28;20441;-78
2022/12/06 02:43:39;;;;;;;29.13;20.63;;;4.40;99.90;;;;;;5007944;28;20473;-78
2022/12/06 02:46:10;;;;;;;31.70;18.37;;;4.30;99.90;;;;;;5006594;28;20444;-79
2022/12/06 02:48:39;;;;;;;28.60;20.00;;;4.30;99.90;;;;;;5006940;28;20446;-78
2022/12/06 02:51:10;;;;;;;27.00;18.13;;;4.30;99.90;;;;;;5004989;28;20486;-78
2022/12/06 02:53:41;;;;;;;32.40;19.23;;;4.40;99.90;;;;;;5002779;28;20882;-78
2022/12/06 02:56:08;;;;;;;29.80;19.20;;;4.30;99.90;;;;;;5001344;28;20468;-78
2022/12/06 02:58:36;;;;;;;30.30;19.00;;;4.30;99.90;;;;;;5003948;28;20449;-78
2022/12/06 03:01:05;;;;;;;35.47;20.50;;;4.30;99.90;;;;;;5007241;28;20561;-78
2022/12/06 03:04:04;;;;;;;34.60;20.43;;;4.30;99.90;;;;;;5007701;28;20469;-78
2022/12/06 03:06:58;;;;;;;31.00;18.80;;;4.30;99.90;;;;;;4984691;28;20459;-78
2022/12/06 03:09:35;;;;;;;26.63;19.03;;;4.30;99.90;;;;;;5002873;28;20452;-78
2022/12/06 03:12:08;;;;;;;28.50;19.30;;;4.20;99.90;;;;;;5006555;28;20485;-79
2022/12/06 03:14:41;;;;;;;29.63;18.87;;;4.20;99.90;;;;;;5005882;28;20872;-79
2022/12/06 03:17:15;;;;;;;28.70;18.80;;;4.30;99.90;;;;;;5005340;28;20433;-78
2022/12/06 03:19:48;;;;;;;25.63;18.20;;;4.30;99.90;;;;;;5005548;28;20446;-78
2022/12/06 03:22:21;;;;;;;25.47;18.40;;;4.30;99.90;;;;;;5004526;28;20838;-78
2022/12/06 03:24:48;;;;;;;27.27;18.67;;;4.40;99.90;;;;;;5002993;28;20469;-78
2022/12/06 03:27:19;;;;;;;27.20;17.40;;;4.40;99.90;;;;;;5000995;28;20473;-78
2022/12/06 03:29:49;;;;;;;25.40;17.47;;;4.40;99.90;;;;;;5000619;28;20429;-78
2022/12/06 03:32:19;;;;;;;33.90;18.40;;;4.40;99.90;;;;;;4998841;28;20469;-78
2022/12/06 03:34:51;;;;;;;25.50;18.07;;;4.40;99.90;;;;;;4996348;28;21027;-78
2022/12/06 03:37:26;;;;;;;26.30;18.97;;;4.50;99.90;;;;;;4998972;28;20552;-78
2022/12/06 03:40:02;;;;;;;23.17;17.33;;;4.50;99.90;;;;;;4999281;28;20432;-78
2022/12/06 03:42:30;;;;;;;25.60;16.80;;;4.50;99.90;;;;;;4999556;28;20872;-78
2022/12/06 03:44:58;;;;;;;30.50;17.23;;;4.50;99.90;;;;;;4998234;28;20488;-77
2022/12/06 03:47:30;;;;;;;26.37;16.90;;;4.50;99.90;;;;;;4998016;28;20481;-78
2022/12/06 03:50:01;;;;;;;27.50;18.10;;;4.50;99.90;;;;;;4998019;28;20440;-77
2022/12/06 03:52:29;;;;;;;27.13;17.23;;;4.50;99.90;;;;;;4997069;28;20487;-77
2022/12/06 03:54:56;;;;;;;27.27;18.57;;;4.50;99.90;;;;;;4996273;28;20977;-77
2022/12/06 03:57:23;;;;;;;27.13;18.40;;;4.50;99.90;;;;;;4995921;28;20457;-78
2022/12/06 03:59:50;;;;;;;38.03;18.10;;;4.50;99.90;;;;;;4995804;28;20453;-78
2022/12/06 04:02:16;;;;;;;27.07;19.33;;;4.50;99.90;;;;;;4996475;28;20445;-77
2022/12/06 04:04:43;;;;;;;29.63;18.60;;;4.60;99.90;;;;;;4995509;28;20837;-77
2022/12/06 04:07:12;;;;;;;23.70;16.40;;;4.60;99.90;;;;;;4997512;28;20454;-77
2022/12/06 04:09:55;;;;;;;24.87;17.93;;;4.60;99.90;;;;;;4995778;28;20941;-77
2022/12/06 04:15:09;;;;;;;28.87;17.47;;;4.60;99.90;;;;;;4995504;28;20489;-77
2022/12/06 04:20:23;;;;;;;26.57;17.77;;;4.70;99.90;;;;;;4996526;28;20415;-77
2022/12/06 04:23:05;;;;;;;25.47;17.70;;;4.70;99.90;;;;;;4995849;28;20459;-77
2022/12/06 04:25:32;;;;;;;27.43;16.80;;;4.80;99.90;;;;;;4996138;28;20478;-77
2022/12/06 04:38:57;;;;;;;26.50;18.17;;;4.80;99.90;;;;;;4995783;28;20779;-78
2022/12/06 04:44:08;;;;;;;30.97;17.47;;;4.90;99.90;;;;;;4994281;28;20523;-77
2022/12/06 04:46:35;;;;;;;27.00;17.40;;;4.90;99.90;;;;;;4995604;28;20466;-77
2022/12/06 04:49:02;;;;;;;32.03;18.57;;;4.90;99.90;;;;;;4997730;28;20457;-77
2022/12/06 04:51:29;;;;;;;26.67;16.67;;;5.00;99.90;;;;;;4997871;28;20848;-77
2022/12/06 04:53:57;;;;;;;24.47;17.47;;;5.00;99.90;;;;;;4997769;28;20472;-77
2022/12/06 04:56:23;;;;;;;29.30;17.83;;;5.00;99.90;;;;;;4997799;28;20817;-76
2022/12/06 04:58:50;;;;;;;27.67;17.07;;;5.10;99.90;;;;;;5017295;28;20462;-76
2022/12/06 05:01:17;;;;;;;25.80;16.53;;;5.00;99.90;;;;;;5010808;28;20465;-77
2022/12/06 05:03:44;;;;;;;31.93;19.33;;;5.10;99.90;;;;;;4997241;28;21202;-77
2022/12/06 05:06:10;;;;;;;29.43;17.87;;;5.00;99.90;;;;;;4997531;28;20459;-77
2022/12/06 05:08:37;;;;;;;30.23;19.00;;;5.00;99.90;;;;;;4997455;28;20456;-77
2022/12/06 05:11:06;;;;;;;27.67;17.73;;;5.00;99.90;;;;;;4997319;28;20451;-77
2022/12/06 05:13:32;;;;;;;30.33;17.43;;;5.00;99.90;;;;;;4997267;28;20517;-77
2022/12/06 05:16:01;;;;;;;27.47;18.73;;;5.00;99.90;;;;;;4997462;28;20445;-77
2022/12/06 05:18:28;;;;;;;34.47;18.53;;;5.00;99.90;;;;;;4997577;28;20474;-77
2022/12/06 05:21:02;;;;;;;27.57;17.77;;;5.10;99.90;;;;;;4997840;28;20439;-77
2022/12/06 05:23:29;;;;;;;30.37;18.63;;;5.10;99.90;;;;;;4997806;28;20463;-77
2022/12/06 05:25:58;;;;;;;25.90;16.67;;;5.10;99.90;;;;;;4997670;28;21010;-77
2022/12/06 05:28:27;;;;;;;28.37;17.50;;;5.10;99.90;;;;;;4997781;28;20501;-77
2022/12/06 05:30:54;;;;;;;31.00;17.30;;;5.10;99.90;;;;;;4998200;28;20451;-77
2022/12/06 05:33:21;;;;;;;31.43;18.50;;;5.10;99.90;;;;;;4997060;28;20514;-77
2022/12/06 05:35:47;;;;;;;29.13;18.80;;;5.10;99.90;;;;;;4997118;28;20815;-77
2022/12/06 05:38:14;;;;;;;29.03;18.23;;;5.20;99.90;;;;;;4996792;28;20461;-77
2022/12/06 05:40:41;;;;;;;33.50;19.57;;;5.20;99.90;;;;;;4996779;28;20459;-77
2022/12/06 05:43:08;;;;;;;28.10;18.40;;;5.20;99.90;;;;;;4996866;28;20459;-77
2022/12/06 05:45:37;;;;;;;31.83;18.47;;;5.20;99.90;;;;;;4996718;28;20448;-77
2022/12/06 05:48:04;;;;;;;27.33;16.80;;;5.20;99.90;;;;;;4996470;28;20467;-77
2022/12/06 05:50:31;;;;;;;30.97;20.10;;;5.20;99.90;;;;;;4996709;28;20440;-77
2022/12/06 05:52:59;;;;;;;32.87;18.60;;;5.20;99.90;;;;;;4997292;28;20495;-76
2022/12/06 05:55:27;;;;;;;26.50;17.50;;;5.20;99.90;;;;;;4996632;28;20472;-77
2022/12/06 05:57:54;;;;;;;30.60;17.77;;;5.20;99.90;;;;;;4995243;28;20821;-76
2022/12/06 06:00:22;;;;;;;33.07;18.70;;;5.20;99.90;;;;;;4996348;28;20477;-77
2022/12/06 06:02:52;;;;;;;30.50;18.10;;;5.20;99.90;;;;;;4996356;28;20892;-77
2022/12/06 06:05:19;;;;;;;32.97;18.57;;;5.20;99.90;;;;;;4995988;28;20999;-76
2022/12/06 06:07:46;;;;;;;27.47;16.70;;;5.30;99.90;;;;;;4996724;28;20474;-77
2022/12/06 06:10:14;;;;;;;27.93;17.10;;;5.20;99.90;;;;;;4996224;28;20818;-76
2022/12/06 06:12:41;;;;;;;37.13;19.70;;;5.20;99.90;;;;;;4996056;28;20542;-77
2022/12/06 06:15:09;;;;;;;31.57;18.80;;;5.20;99.90;;;;;;4996571;28;20472;-77
2022/12/06 06:17:35;;;;;;;32.80;19.70;;;5.20;99.90;;;;;;4996111;28;20462;-76
2022/12/06 06:20:06;;;;;;;29.47;17.50;;;5.30;99.90;;;;;;4996877;28;20458;-77
2022/12/06 06:22:34;;;;;;;28.27;16.27;;;5.20;99.90;;;;;;4995941;28;20422;-77
2022/12/06 06:25:01;;;;;;;30.53;16.83;;;5.30;99.90;;;;;;4995608;28;20476;-77
2022/12/06 06:27:28;;;;;;;24.47;16.17;;;5.30;99.90;;;;;;4995529;28;20947;-77
2022/12/06 06:29:55;;;;;;;29.30;18.10;;;5.30;99.90;;;;;;4995599;28;20960;-77
2022/12/06 06:32:22;;;;;;;29.70;17.53;;;5.40;99.90;;;;;;4995439;28;20905;-76
2022/12/06 06:34:48;;;;;;;26.83;16.23;;;5.40;99.90;;;;;;4995832;28;20479;-77
2022/12/06 06:37:16;;;;;;;27.77;16.60;;;5.40;99.90;;;;;;4996245;28;20436;-76
2022/12/06 06:39:43;;;;;;;25.90;14.90;;;5.40;99.90;;;;;;4996711;28;20482;-76
2022/12/06 06:42:10;;;;;;;24.00;14.67;;;5.40;99.90;;;;;;4997314;28;20459;-77
2022/12/06 06:44:37;;;;;;;31.73;16.30;;;5.50;99.90;;;;;;5000370;28;20482;-76
2022/12/06 06:47:03;;;;;;;26.47;15.63;;;5.50;99.90;;;;;;5005169;28;20458;-76
2022/12/06 06:49:30;;;;;;;29.03;15.50;;;5.50;99.90;;;;;;5003132;28;20485;-76
2022/12/06 06:51:57;;;;;;;28.33;14.90;;;5.50;99.90;;;;;;5006288;28;20449;-77
2022/12/06 06:54:26;;;;;;;34.23;16.27;;;5.50;99.90;;;;;;5008226;28;20474;-77
2022/12/06 06:56:54;;;;;;;24.97;15.43;;;5.60;99.90;;;;;;5006952;28;20473;-76
2022/12/06 06:59:21;;;;;;;21.90;14.03;;;5.60;99.90;;;;;;5006234;28;20454;-76
2022/12/06 07:01:47;;;;;;;22.30;15.60;;;5.60;99.90;;;;;;5006240;28;20834;-76
2022/12/06 07:04:14;;;;;;;21.03;12.87;;;5.70;99.90;;;;;;5005553;28;20591;-76
2022/12/06 07:06:41;;;;;;;24.60;14.90;;;5.70;99.90;;;;;;5004927;28;20462;-76
2022/12/06 07:09:09;;;;;;;22.30;14.27;;;5.80;99.90;;;;;;5004071;28;20440;-77
2022/12/06 07:11:37;;;;;;;21.27;13.93;;;5.80;99.90;;;;;;5004104;28;20451;-77
2022/12/06 07:14:04;;;;;;;20.27;13.20;;;5.80;99.90;;;;;;5003460;28;20502;-77
2022/12/06 07:16:31;;;;;;;21.20;12.53;;;5.90;99.90;;;;;;5002915;28;20470;-76
2022/12/06 07:18:57;;;;;;;20.87;12.93;;;5.90;99.90;;;;;;5003503;28;20966;-77
2022/12/06 07:21:24;;;;;;;20.10;12.07;;;5.90;99.90;;;;;;5003978;28;20451;-77
2022/12/06 07:23:51;;;;;;;19.10;11.83;;;6.00;99.90;;;;;;5004435;28;20469;-77
2022/12/06 07:26:19;;;;;;;18.20;11.80;;;6.00;99.90;;;;;;5004663;28;20462;-77
2022/12/06 07:28:49;;;;;;;20.50;12.63;;;6.00;99.90;;;;;;5002624;28;20849;-77
2022/12/06 07:31:18;;;;;;;24.73;13.50;;;6.00;99.90;;;;;;5001854;28;20962;-77
2022/12/06 07:33:45;;;;;;;20.80;13.37;;;6.00;99.90;;;;;;5000561;28;20492;-77
2022/12/06 07:36:13;;;;;;;18.20;12.00;;;6.00;99.90;;;;;;4999827;28;20453;-77
2022/12/06 07:38:40;;;;;;;20.17;11.80;;;6.10;99.90;;;;;;4998622;28;20453;-77
2022/12/06 07:46:37;;;;;;;21.10;13.33;;;6.10;99.90;;;;;;4997040;28;20447;-77
2022/12/06 07:49:05;;;;;;;20.33;11.47;;;6.10;99.90;;;;;;4996813;28;20957;-76
2022/12/06 07:51:31;;;;;;;19.60;11.40;;;6.20;99.90;;;;;;4997208;28;20471;-77
2022/12/06 07:53:58;;;;;;;22.37;12.43;;;6.20;99.90;;;;;;4997667;28;20498;-77
2022/12/06 07:56:25;;;;;;;22.90;12.47;;;6.20;99.90;;;;;;4997763;28;20454;-77
2022/12/06 07:58:53;;;;;;;23.83;12.83;;;6.20;99.90;;;;;;4996604;28;20952;-77
2022/12/06 08:01:21;;;;;;;19.27;13.80;;;6.20;99.90;;;;;;4996744;28;20457;-77
2022/12/06 08:03:48;;;;;;;18.83;12.77;;;6.20;99.90;;;;;;4996101;28;20569;-77
2022/12/06 08:06:14;;;;;;;22.93;12.43;;;6.30;99.90;;;;;;4996463;28;20451;-77
2022/12/06 08:08:41;;;;;;;20.00;12.43;;;6.30;99.90;;;;;;4996681;28;20451;-77
2022/12/06 08:11:08;;;;;;;18.47;12.00;;;6.30;99.90;;;;;;4996637;28;20793;-77
2022/12/06 08:13:36;;;;;;;22.30;12.50;;;6.20;99.90;;;;;;4995905;28;20491;-77
2022/12/06 08:16:07;;;;;;;17.60;12.53;;;6.30;99.90;;;;;;4995883;28;20459;-77
2022/12/06 08:18:34;;;;;;;18.07;11.60;;;6.30;99.90;;;;;;4996049;28;20510;-77
2022/12/06 08:21:01;;;;;;;18.87;12.17;;;6.30;99.90;;;;;;4996717;28;20452;-77
2022/12/06 08:23:28;;;;;;;19.00;11.30;;;6.40;99.90;;;;;;4999201;28;20472;-77
2022/12/06 08:25:59;;;;;;;21.33;12.50;;;6.40;99.90;;;;;;4998943;28;20964;-77
2022/12/06 08:28:26;;;;;;;13.17;10.10;;;6.40;99.90;;;;;;4998762;28;20451;-77
2022/12/06 08:30:53;;;;;;;19.00;12.37;;;6.40;99.90;;;;;;4999249;28;20462;-77
2022/12/06 08:33:21;;;;;;;15.80;10.70;;;6.40;99.90;;;;;;4998996;28;21097;-77
2022/12/06 08:35:48;;;;;;;16.07;10.80;;;6.40;99.90;;;;;;4999340;28;20923;-77
2022/12/06 08:38:15;;;;;;;19.33;10.00;;;6.50;99.90;;;;;;4998934;28;20455;-77
2022/12/06 08:40:42;;;;;;;17.93;10.40;;;6.50;99.90;;;;;;5027913;28;20448;-77
2022/12/06 08:43:09;;;;;;;14.73;10.10;;;6.50;99.90;;;;;;5038121;28;20454;-77
2022/12/06 08:45:36;;;;;;;14.60;10.53;;;6.60;99.90;;;;;;5038053;28;20452;-77
2022/12/06 08:48:03;;;;;;;14.30;9.93;;;6.60;99.90;;;;;;5038596;28;20431;-77
2022/12/06 08:50:31;;;;;;;14.60;10.60;;;6.70;99.90;;;;;;5038801;28;20447;-77
2022/12/06 08:52:58;;;;;;;14.20;10.20;;;6.70;99.90;;;;;;5037618;28;20851;-77
2022/12/06 08:55:25;;;;;;;15.70;10.03;;;6.80;99.90;;;;;;5037513;28;20473;-78
2022/12/06 08:57:51;;;;;;;13.53;9.80;;;6.80;99.90;;;;;;5037614;28;20458;-78
2022/12/06 09:00:19;;;;;;;13.23;9.90;;;6.80;99.90;;;;;;5037557;28;20961;-77
2022/12/06 09:02:45;;;;;;;15.20;10.60;;;6.90;99.90;;;;;;5037436;28;20474;-77
2022/12/06 09:05:12;;;;;;;14.70;10.20;;;6.90;99.90;;;;;;5037456;28;20470;-78
2022/12/06 09:07:40;;;;;;;16.87;10.90;;;7.00;99.90;;;;;;5025645;28;20810;-77
2022/12/06 09:10:08;;;;;;;17.73;12.17;;;7.00;99.90;;;;;;5017407;28;20974;-77
2022/12/06 09:12:35;;;;;;;17.20;11.87;;;7.00;99.90;;;;;;4999846;28;20482;-77
2022/12/06 09:15:01;;;;;;;17.10;11.40;;;7.10;99.90;;;;;;4997473;28;20848;-78
2022/12/06 09:17:28;;;;;;;19.57;11.33;;;7.10;99.90;;;;;;4997552;28;20443;-78
2022/12/06 09:19:55;;;;;;;15.83;10.27;;;7.10;99.90;;;;;;4997628;28;20448;-77
2022/12/06 09:22:22;;;;;;;16.30;10.37;;;7.10;99.90;;;;;;4997500;28;20452;-77
2022/12/06 09:24:50;;;;;;;13.17;9.70;;;7.10;99.90;;;;;;4997839;28;20480;-77
2022/12/06 09:27:18;;;;;;;19.20;12.87;;;7.10;99.90;;;;;;4996866;28;20456;-77
2022/12/06 09:29:44;;;;;;;20.50;11.33;;;7.20;99.90;;;;;;4997855;28;20452;-77
2022/12/06 09:32:11;;;;;;;19.53;10.23;;;7.20;99.90;;;;;;4997843;28;20452;-77
2022/12/06 09:34:38;;;;;;;18.87;11.10;;;7.20;99.90;;;;;;4997015;28;20494;-77
2022/12/06 09:37:09;;;;;;;15.40;9.80;;;7.30;99.90;;;;;;4996809;28;20443;-77
2022/12/06 09:39:39;;;;;;;16.17;10.47;;;7.30;99.90;;;;;;4997061;28;20444;-77
2022/12/06 09:42:32;;;;;;;16.00;10.23;;;7.30;99.90;;;;;;4997624;28;20463;-77
2022/12/06 09:45:15;;;;;;;13.23;10.30;;;7.40;99.90;;;;;;4996958;28;20472;-77
2022/12/06 09:47:55;;;;;;;17.07;10.63;;;7.50;99.90;;;;;;4996646;28;20987;-76
2022/12/06 09:50:29;;;;;;;14.97;10.13;;;7.50;99.90;;;;;;4997099;28;20441;-77
2022/12/06 09:53:12;;;;;;;13.70;9.50;;;7.50;99.90;;;;;;4996979;28;20435;-77
2022/12/06 09:55:51;;;;;;;14.90;10.13;;;7.60;99.90;;;;;;4996690;28;20441;-77
2022/12/06 09:58:29;;;;;;;11.53;8.33;;;7.60;99.90;;;;;;4996506;28;20448;-76
2022/12/06 10:01:06;;;;;;;12.27;9.20;;;7.60;99.90;;;;;;4996491;28;20433;-76
2022/12/06 10:03:55;;;;;;;16.87;9.87;;;7.60;99.90;;;;;;4996508;28;20473;-77
2022/12/06 10:06:25;;;;;;;18.57;10.30;;;7.70;99.90;;;;;;4996477;28;20440;-77
2022/12/06 10:09:10;;;;;;;11.60;9.40;;;7.70;99.90;;;;;;4996412;28;20478;-77
2022/12/06 10:12:03;;;;;;;14.00;9.97;;;7.70;99.90;;;;;;4996314;28;20434;-78
2022/12/06 10:14:48;;;;;;;15.23;9.13;;;7.70;99.90;;;;;;4996387;28;20495;-77
2022/12/06 10:17:25;;;;;;;17.60;10.07;;;7.70;99.90;;;;;;4995744;28;20804;-77
2022/12/06 10:20:03;;;;;;;10.47;7.97;;;7.80;99.90;;;;;;4996275;28;20453;-77
2022/12/06 10:22:40;;;;;;;13.33;9.13;;;7.80;99.90;;;;;;4995915;28;20528;-77
2022/12/06 10:25:13;;;;;;;11.40;8.53;;;7.90;99.90;;;;;;4997071;28;20473;-77
2022/12/06 10:27:43;;;;;;;17.33;9.07;;;7.90;99.90;;;;;;4995767;28;20785;-77
2022/12/06 10:30:14;;;;;;;12.67;10.43;;;7.90;99.90;;;;;;4996097;28;20504;-76
2022/12/06 10:32:52;;;;;;;12.23;10.80;;;7.90;99.90;;;;;;4995977;28;20435;-77
2022/12/06 10:35:29;;;;;;;11.53;8.47;;;8.00;99.90;;;;;;4996065;28;20470;-77
2022/12/06 10:38:03;;;;;;;8.70;7.40;;;8.00;99.90;;;;;;4995927;28;20942;-77
2022/12/06 10:40:38;;;;;;;11.47;7.90;;;8.00;99.90;;;;;;4995794;28;20437;-77
2022/12/06 10:43:13;;;;;;;17.13;8.80;;;8.10;99.90;;;;;;4996166;28;20493;-77
2022/12/06 10:48:37;;;;;;;9.10;8.20;;;8.20;99.90;;;;;;4995360;28;20417;-77
2022/12/06 10:51:10;;;;;;;9.73;7.20;;;8.30;99.90;;;;;;4995549;28;20469;-77
2022/12/06 10:53:42;;;;;;;7.73;6.93;;;8.30;99.90;;;;;;4995332;28;20493;-76
2022/12/06 10:56:15;;;;;;;9.50;7.40;;;8.40;99.90;;;;;;4995451;28;20817;-77
2022/12/06 10:58:47;;;;;;;9.37;6.60;;;8.40;99.90;;;;;;4995493;28;20442;-77
2022/12/06 11:01:19;;;;;;;10.00;7.20;;;8.50;99.90;;;;;;4995493;28;20509;-76
2022/12/06 11:03:55;;;;;;;9.50;8.13;;;8.50;99.90;;;;;;4995165;28;20475;-77
2022/12/06 11:06:30;;;;;;;8.77;7.87;;;8.60;99.90;;;;;;4995057;28;20981;-77
2022/12/06 11:09:01;;;;;;;7.40;6.70;;;8.60;99.90;;;;;;4995054;28;20982;-77
2022/12/06 11:11:31;;;;;;;11.23;6.60;;;8.60;99.90;;;;;;4995108;28;20442;-77
2022/12/06 11:14:03;;;;;;;7.67;5.93;;;8.60;99.90;;;;;;4994692;28;20487;-76
2022/12/06 11:16:37;;;;;;;7.23;5.90;;;8.60;99.90;;;;;;4995491;28;20533;-77
2022/12/06 11:19:18;;;;;;;7.00;5.97;;;8.60;99.90;;;;;;4995572;28;20447;-77
2022/12/06 11:21:53;;;;;;;9.93;5.70;;;8.60;99.90;;;;;;4995369;28;20630;-77
2022/12/06 11:24:26;;;;;;;7.23;6.33;;;8.50;99.90;;;;;;4994929;28;20475;-77
2022/12/06 11:27:01;;;;;;;6.40;5.80;;;8.50;99.90;;;;;;4994446;28;20479;-77
2022/12/06 11:29:28;;;;;;;6.03;5.40;;;8.50;99.90;;;;;;4995439;28;20460;-76
2022/12/06 11:32:00;;;;;;;5.40;4.80;;;8.50;99.90;;;;;;4994952;28;20437;-77
2022/12/06 11:34:30;;;;;;;5.83;4.77;;;8.60;99.90;;;;;;4995074;28;20485;-77
2022/12/06 11:36:58;;;;;;;6.43;5.00;;;8.60;99.90;;;;;;4996286;28;20466;-76
2022/12/06 11:39:27;;;;;;;9.57;5.27;;;8.70;99.90;;;;;;4999476;28;20479;-76
2022/12/06 11:42:00;;;;;;;6.80;4.93;;;8.70;99.90;;;;;;4999381;28;20451;-76
2022/12/06 11:44:35;;;;;;;7.10;4.60;;;8.70;99.90;;;;;;4998927;28;20849;-76
2022/12/06 11:47:06;;;;;;;4.50;4.07;;;8.80;99.90;;;;;;5000282;28;20482;-76
2022/12/06 11:49:36;;;;;;;5.93;5.33;;;8.80;99.90;;;;;;4995945;28;20435;-76
2022/12/06 11:52:07;;;;;;;6.33;5.73;;;8.80;99.90;;;;;;4994520;28;20451;-76
2022/12/06 11:54:39;;;;;;;7.03;5.57;;;8.80;99.90;;;;;;4994319;28;20481;-77
2022/12/06 11:57:17;;;;;;;6.03;5.10;;;8.70;99.20;;;;;;4993613;28;20443;-76
2022/12/06 12:00:16;;;;;;;7.50;5.90;;;8.60;99.30;;;;;;4994385;28;20445;-76
2022/12/06 12:02:46;;;;;;;7.50;5.10;;;8.60;99.60;;;;;;4994000;28;20517;-77
2022/12/06 12:05:19;;;;;;;7.23;6.37;;;8.60;99.40;;;;;;4994175;28;20470;-77
2022/12/06 12:07:49;;;;;;;6.60;5.67;;;8.60;99.50;;;;;;4994473;28;20433;-76
2022/12/06 12:10:26;;;;;;;6.57;4.80;;;8.60;99.40;;;;;;4993984;28;20950;-76
2022/12/06 12:15:47;;;;;;;17.33;12.70;;;8.60;99.70;;;;;;4994310;28;20537;-77
2022/12/06 12:18:23;;;;;;;7.63;5.70;;;8.70;99.80;;;;;;4994288;28;20445;-77
2022/12/06 12:20:50;;;;;;;6.17;5.10;;;8.80;99.50;;;;;;4993978;28;20444;-77
2022/12/06 12:23:20;;;;;;;6.20;5.60;;;8.80;98.80;;;;;;4993737;28;20907;-77
2022/12/06 12:25:59;;;;;;;9.23;6.60;;;8.80;99.00;;;;;;4993874;28;20462;-77
2022/12/06 12:28:28;;;;;;;10.80;5.40;;;8.80;98.90;;;;;;4993936;28;20470;-77
2022/12/06 12:30:57;;;;;;;9.20;6.57;;;8.70;98.80;;;;;;4993725;28;20970;-77
2022/12/06 12:33:25;;;;;;;8.67;6.30;;;8.70;98.90;;;;;;4993749;28;20455;-77
2022/12/06 12:35:56;;;;;;;7.07;6.30;;;8.60;99.00;;;;;;4993934;28;20827;-77
2022/12/06 12:38:31;;;;;;;5.80;5.30;;;8.60;98.90;;;;;;4993991;28;20806;-76
2022/12/06 12:41:01;;;;;;;10.60;5.57;;;8.70;99.30;;;;;;4993916;28;20445;-77
2022/12/06 12:43:31;;;;;;;9.13;8.13;;;8.70;98.90;;;;;;4993533;28;21002;-76
2022/12/06 12:46:22;;;;;;;8.10;5.07;;;8.90;99.10;;;;;;4993900;28;20461;-77
2022/12/06 12:48:51;;;;;;;8.00;5.70;;;9.00;98.80;;;;;;4983835;28;20550;-76
2022/12/06 12:51:28;;;;;;;8.00;6.10;;;9.00;98.10;;;;;;4993580;28;20947;-76
2022/12/06 12:53:57;;;;;;;8.27;5.87;;;9.10;98.20;;;;;;4993743;28;20922;-77
2022/12/06 12:56:24;;;;;;;6.57;5.97;;;9.40;98.10;;;;;;4993458;28;20456;-77
2022/12/06 12:58:54;;;;;;;8.23;5.83;;;9.50;96.60;;;;;;4993515;28;20934;-76
2022/12/06 13:01:33;;;;;;;6.80;4.90;;;9.60;96.10;;;;;;4993734;28;20485;-76
2022/12/06 13:04:07;;;;;;;6.17;5.20;;;9.60;95.90;;;;;;4993544;28;20491;-77
2022/12/06 13:06:42;;;;;;;6.73;5.07;;;9.50;95.00;;;;;;4994047;28;20495;-77
2022/12/06 13:09:17;;;;;;;6.47;5.77;;;9.50;95.20;;;;;;4997433;28;20438;-77
2022/12/06 13:11:48;;;;;;;5.40;4.90;;;9.40;95.40;;;;;;4997155;28;20441;-77
2022/12/06 13:14:19;;;;;;;6.23;5.67;;;9.30;95.40;;;;;;4997028;28;20997;-77
2022/12/06 13:16:48;;;;;;;6.00;5.47;;;9.20;95.40;;;;;;4996930;28;20920;-76
2022/12/06 13:19:18;;;;;;;9.47;5.53;;;9.00;95.60;;;;;;4997065;28;20466;-77
2022/12/06 13:21:45;;;;;;;8.40;4.80;;;9.00;95.70;;;;;;4996873;28;20530;-77
2022/12/06 13:24:20;;;;;;;5.80;4.60;;;8.80;95.70;;;;;;4997036;28;20498;-77
2022/12/06 13:26:50;;;;;;;6.57;5.10;;;8.70;96.10;;;;;;4997049;28;20464;-77